sensor_id;sensor_type;location;lat;lon;timestamp;P1;durP1;ratioP1;P2;durP2;ratioP2
24259;SDS011;12384;48.112;18.418;2023-02-13T00:01:24;16.00;;;14.10;;
24259;SDS011;12384;48.112;18.418;2023-02-13T00:03:52;15.40;;;13.30;;
24259;SDS011;12384;48.112;18.418;2023-02-13T00:06:20;16.30;;;14.63;;
24259;SDS011;12384;48.112;18.418;2023-02-13T00:08:49;15.57;;;12.77;;
24259;SDS011;12384;48.112;18.418;2023-02-13T00:11:17;16.80;;;15.07;;
24259;SDS011;12384;48.112;18.418;2023-02-13T00:13:46;15.63;;;13.97;;
24259;SDS011;12384;48.112;18.418;2023-02-13T00:16:16;21.77;;;17.23;;
24259;SDS011;12384;48.112;18.418;2023-02-13T00:18:44;21.57;;;17.60;;
24259;SDS011;12384;48.112;18.418;2023-02-13T00:21:13;25.97;;;17.90;;
24259;SDS011;12384;48.112;18.418;2023-02-13T00:23:41;21.70;;;17.63;;
24259;SDS011;12384;48.112;18.418;2023-02-13T00:26:10;17.97;;;15.77;;
24259;SDS011;12384;48.112;18.418;2023-02-13T00:28:43;18.70;;;16.03;;
24259;SDS011;12384;48.112;18.418;2023-02-13T00:31:13;19.03;;;15.03;;
24259;SDS011;12384;48.112;18.418;2023-02-13T00:33:44;16.90;;;15.10;;
24259;SDS011;12384;48.112;18.418;2023-02-13T00:36:13;15.83;;;13.80;;
24259;SDS011;12384;48.112;18.418;2023-02-13T00:38:43;16.80;;;14.30;;
24259;SDS011;12384;48.112;18.418;2023-02-13T00:41:12;14.17;;;12.77;;
24259;SDS011;12384;48.112;18.418;2023-02-13T00:43:42;22.73;;;16.77;;
24259;SDS011;12384;48.112;18.418;2023-02-13T00:46:11;24.80;;;18.43;;
24259;SDS011;12384;48.112;18.418;2023-02-13T00:48:41;26.40;;;18.67;;
24259;SDS011;12384;48.112;18.418;2023-02-13T00:51:10;25.53;;;19.27;;
24259;SDS011;12384;48.112;18.418;2023-02-13T00:53:39;18.77;;;16.13;;
24259;SDS011;12384;48.112;18.418;2023-02-13T00:56:08;21.20;;;17.10;;
24259;SDS011;12384;48.112;18.418;2023-02-13T00:58:37;15.93;;;14.33;;
24259;SDS011;12384;48.112;18.418;2023-02-13T01:01:05;18.73;;;14.43;;
24259;SDS011;12384;48.112;18.418;2023-02-13T01:03:34;15.00;;;13.37;;
24259;SDS011;12384;48.112;18.418;2023-02-13T01:06:04;16.60;;;13.53;;
24259;SDS011;12384;48.112;18.418;2023-02-13T01:08:33;15.13;;;13.50;;
24259;SDS011;12384;48.112;18.418;2023-02-13T01:11:02;20.97;;;14.43;;
24259;SDS011;12384;48.112;18.418;2023-02-13T01:13:30;17.63;;;14.30;;
24259;SDS011;12384;48.112;18.418;2023-02-13T01:15:59;15.13;;;13.53;;
24259;SDS011;12384;48.112;18.418;2023-02-13T01:18:27;19.33;;;14.27;;
24259;SDS011;12384;48.112;18.418;2023-02-13T01:20:57;20.90;;;16.13;;
24259;SDS011;12384;48.112;18.418;2023-02-13T01:23:31;20.07;;;16.73;;
24259;SDS011;12384;48.112;18.418;2023-02-13T01:26:02;16.50;;;14.70;;
24259;SDS011;12384;48.112;18.418;2023-02-13T01:28:31;15.83;;;14.23;;
24259;SDS011;12384;48.112;18.418;2023-02-13T01:31:00;15.40;;;13.83;;
24259;SDS011;12384;48.112;18.418;2023-02-13T01:33:29;14.20;;;12.80;;
24259;SDS011;12384;48.112;18.418;2023-02-13T01:35:57;15.70;;;13.10;;
24259;SDS011;12384;48.112;18.418;2023-02-13T01:38:26;14.77;;;12.90;;
24259;SDS011;12384;48.112;18.418;2023-02-13T01:40:56;14.30;;;12.80;;
24259;SDS011;12384;48.112;18.418;2023-02-13T01:43:29;17.40;;;14.10;;
24259;SDS011;12384;48.112;18.418;2023-02-13T01:46:11;14.30;;;12.70;;
24259;SDS011;12384;48.112;18.418;2023-02-13T01:48:42;16.73;;;14.70;;
24259;SDS011;12384;48.112;18.418;2023-02-13T01:51:11;16.40;;;14.27;;
24259;SDS011;12384;48.112;18.418;2023-02-13T01:53:45;22.70;;;16.70;;
24259;SDS011;12384;48.112;18.418;2023-02-13T01:56:21;24.63;;;17.93;;
24259;SDS011;12384;48.112;18.418;2023-02-13T01:58:55;22.93;;;17.80;;
24259;SDS011;12384;48.112;18.418;2023-02-13T02:01:26;24.63;;;18.83;;
24259;SDS011;12384;48.112;18.418;2023-02-13T02:03:56;26.10;;;19.47;;
24259;SDS011;12384;48.112;18.418;2023-02-13T02:06:33;23.40;;;18.27;;
24259;SDS011;12384;48.112;18.418;2023-02-13T02:09:05;24.97;;;18.00;;
24259;SDS011;12384;48.112;18.418;2023-02-13T02:11:40;24.87;;;19.90;;
24259;SDS011;12384;48.112;18.418;2023-02-13T02:14:13;23.67;;;20.03;;
24259;SDS011;12384;48.112;18.418;2023-02-13T02:16:42;32.47;;;19.73;;
24259;SDS011;12384;48.112;18.418;2023-02-13T02:25:08;22.13;;;17.83;;
24259;SDS011;12384;48.112;18.418;2023-02-13T02:31:12;25.47;;;18.50;;
24259;SDS011;12384;48.112;18.418;2023-02-13T02:34:11;21.00;;;16.70;;
24259;SDS011;12384;48.112;18.418;2023-02-13T02:36:54;18.73;;;16.13;;
24259;SDS011;12384;48.112;18.418;2023-02-13T02:39:43;18.27;;;14.90;;
24259;SDS011;12384;48.112;18.418;2023-02-13T02:42:23;17.63;;;15.77;;
24259;SDS011;12384;48.112;18.418;2023-02-13T02:45:02;20.17;;;16.93;;
24259;SDS011;12384;48.112;18.418;2023-02-13T02:47:40;22.67;;;19.53;;
24259;SDS011;12384;48.112;18.418;2023-02-13T02:50:38;19.70;;;16.13;;
24259;SDS011;12384;48.112;18.418;2023-02-13T02:53:14;25.77;;;19.57;;
24259;SDS011;12384;48.112;18.418;2023-02-13T02:55:51;31.60;;;21.33;;
24259;SDS011;12384;48.112;18.418;2023-02-13T02:58:30;29.63;;;22.10;;
24259;SDS011;12384;48.112;18.418;2023-02-13T03:01:24;21.33;;;18.30;;
24259;SDS011;12384;48.112;18.418;2023-02-13T03:04:15;22.97;;;18.47;;
24259;SDS011;12384;48.112;18.418;2023-02-13T03:07:06;25.50;;;19.50;;
24259;SDS011;12384;48.112;18.418;2023-02-13T03:09:39;24.57;;;19.83;;
24259;SDS011;12384;48.112;18.418;2023-02-13T03:12:29;30.80;;;21.70;;
24259;SDS011;12384;48.112;18.418;2023-02-13T03:15:22;33.73;;;25.27;;
24259;SDS011;12384;48.112;18.418;2023-02-13T03:17:53;31.53;;;23.97;;
24259;SDS011;12384;48.112;18.418;2023-02-13T03:20:42;27.23;;;21.77;;
24259;SDS011;12384;48.112;18.418;2023-02-13T03:23:40;28.00;;;20.77;;
24259;SDS011;12384;48.112;18.418;2023-02-13T03:26:29;24.73;;;20.03;;
24259;SDS011;12384;48.112;18.418;2023-02-13T03:29:21;29.57;;;21.07;;
24259;SDS011;12384;48.112;18.418;2023-02-13T03:32:20;31.43;;;23.87;;
24259;SDS011;12384;48.112;18.418;2023-02-13T03:34:57;34.07;;;24.57;;
24259;SDS011;12384;48.112;18.418;2023-02-13T03:37:53;39.67;;;25.63;;
24259;SDS011;12384;48.112;18.418;2023-02-13T03:40:32;35.47;;;24.30;;
24259;SDS011;12384;48.112;18.418;2023-02-13T03:43:24;24.97;;;19.60;;
24259;SDS011;12384;48.112;18.418;2023-02-13T03:45:56;28.10;;;21.70;;
24259;SDS011;12384;48.112;18.418;2023-02-13T03:48:28;23.00;;;18.93;;
24259;SDS011;12384;48.112;18.418;2023-02-13T03:51:19;20.73;;;18.43;;
24259;SDS011;12384;48.112;18.418;2023-02-13T03:53:52;19.80;;;17.70;;
24259;SDS011;12384;48.112;18.418;2023-02-13T03:56:25;20.90;;;17.00;;
24259;SDS011;12384;48.112;18.418;2023-02-13T03:59:15;17.70;;;15.87;;
24259;SDS011;12384;48.112;18.418;2023-02-13T04:01:50;22.47;;;18.23;;
24259;SDS011;12384;48.112;18.418;2023-02-13T04:04:27;27.93;;;20.70;;
24259;SDS011;12384;48.112;18.418;2023-02-13T04:07:02;32.83;;;22.83;;
24259;SDS011;12384;48.112;18.418;2023-02-13T04:09:34;22.07;;;19.40;;
24259;SDS011;12384;48.112;18.418;2023-02-13T04:12:07;27.77;;;21.13;;
24259;SDS011;12384;48.112;18.418;2023-02-13T04:14:45;32.37;;;23.47;;
24259;SDS011;12384;48.112;18.418;2023-02-13T04:17:20;30.83;;;23.03;;
24259;SDS011;12384;48.112;18.418;2023-02-13T04:19:53;28.20;;;21.83;;
24259;SDS011;12384;48.112;18.418;2023-02-13T04:22:22;24.47;;;20.17;;
24259;SDS011;12384;48.112;18.418;2023-02-13T04:24:50;28.00;;;21.73;;
24259;SDS011;12384;48.112;18.418;2023-02-13T04:27:20;23.07;;;20.57;;
24259;SDS011;12384;48.112;18.418;2023-02-13T04:29:52;31.03;;;22.70;;
24259;SDS011;12384;48.112;18.418;2023-02-13T04:32:20;22.20;;;19.17;;
24259;SDS011;12384;48.112;18.418;2023-02-13T04:34:49;21.53;;;18.70;;
24259;SDS011;12384;48.112;18.418;2023-02-13T04:37:17;23.27;;;19.13;;
24259;SDS011;12384;48.112;18.418;2023-02-13T04:39:45;18.53;;;16.53;;
24259;SDS011;12384;48.112;18.418;2023-02-13T04:42:14;23.37;;;19.03;;
24259;SDS011;12384;48.112;18.418;2023-02-13T04:44:43;22.17;;;17.90;;
24259;SDS011;12384;48.112;18.418;2023-02-13T04:47:12;21.20;;;17.60;;
24259;SDS011;12384;48.112;18.418;2023-02-13T04:49:40;20.00;;;17.73;;
24259;SDS011;12384;48.112;18.418;2023-02-13T04:52:09;20.00;;;17.87;;
24259;SDS011;12384;48.112;18.418;2023-02-13T04:54:37;20.20;;;18.10;;
24259;SDS011;12384;48.112;18.418;2023-02-13T04:57:05;20.53;;;18.07;;
24259;SDS011;12384;48.112;18.418;2023-02-13T04:59:34;18.43;;;16.63;;
24259;SDS011;12384;48.112;18.418;2023-02-13T05:02:03;22.77;;;18.63;;
24259;SDS011;12384;48.112;18.418;2023-02-13T05:04:32;21.87;;;18.13;;
24259;SDS011;12384;48.112;18.418;2023-02-13T05:07:00;21.43;;;18.30;;
24259;SDS011;12384;48.112;18.418;2023-02-13T05:09:29;20.97;;;18.77;;
24259;SDS011;12384;48.112;18.418;2023-02-13T05:11:57;21.57;;;18.63;;
24259;SDS011;12384;48.112;18.418;2023-02-13T05:14:25;29.90;;;22.43;;
24259;SDS011;12384;48.112;18.418;2023-02-13T05:16:54;26.10;;;20.87;;
24259;SDS011;12384;48.112;18.418;2023-02-13T05:19:23;25.67;;;22.10;;
24259;SDS011;12384;48.112;18.418;2023-02-13T05:21:52;21.87;;;19.23;;
24259;SDS011;12384;48.112;18.418;2023-02-13T05:24:38;28.73;;;23.27;;
24259;SDS011;12384;48.112;18.418;2023-02-13T05:27:06;33.87;;;25.37;;
24259;SDS011;12384;48.112;18.418;2023-02-13T05:29:34;24.27;;;21.33;;
24259;SDS011;12384;48.112;18.418;2023-02-13T05:32:03;23.30;;;20.50;;
24259;SDS011;12384;48.112;18.418;2023-02-13T05:34:33;22.63;;;20.20;;
24259;SDS011;12384;48.112;18.418;2023-02-13T05:37:01;21.50;;;18.90;;
24259;SDS011;12384;48.112;18.418;2023-02-13T05:39:29;20.47;;;18.23;;
24259;SDS011;12384;48.112;18.418;2023-02-13T05:41:58;18.13;;;16.53;;
24259;SDS011;12384;48.112;18.418;2023-02-13T05:44:26;21.63;;;19.30;;
24259;SDS011;12384;48.112;18.418;2023-02-13T05:46:55;26.17;;;22.57;;
24259;SDS011;12384;48.112;18.418;2023-02-13T05:49:23;30.30;;;23.33;;
24259;SDS011;12384;48.112;18.418;2023-02-13T05:51:53;22.37;;;20.00;;
24259;SDS011;12384;48.112;18.418;2023-02-13T05:54:21;24.17;;;21.57;;
24259;SDS011;12384;48.112;18.418;2023-02-13T05:56:50;20.80;;;18.70;;
24259;SDS011;12384;48.112;18.418;2023-02-13T05:59:18;20.33;;;18.37;;
24259;SDS011;12384;48.112;18.418;2023-02-13T06:01:49;22.93;;;20.47;;
24259;SDS011;12384;48.112;18.418;2023-02-13T06:04:18;34.57;;;26.13;;
24259;SDS011;12384;48.112;18.418;2023-02-13T06:06:46;23.27;;;20.87;;
24259;SDS011;12384;48.112;18.418;2023-02-13T06:09:16;21.70;;;19.40;;
24259;SDS011;12384;48.112;18.418;2023-02-13T06:11:44;21.07;;;18.40;;
24259;SDS011;12384;48.112;18.418;2023-02-13T06:14:12;20.93;;;18.93;;
24259;SDS011;12384;48.112;18.418;2023-02-13T06:16:41;20.03;;;18.20;;
24259;SDS011;12384;48.112;18.418;2023-02-13T06:19:09;19.70;;;17.70;;
24259;SDS011;12384;48.112;18.418;2023-02-13T06:21:37;20.50;;;18.50;;
24259;SDS011;12384;48.112;18.418;2023-02-13T06:24:06;22.27;;;19.03;;
24259;SDS011;12384;48.112;18.418;2023-02-13T06:26:36;20.50;;;18.40;;
24259;SDS011;12384;48.112;18.418;2023-02-13T06:29:05;21.10;;;18.90;;
24259;SDS011;12384;48.112;18.418;2023-02-13T06:31:35;22.13;;;19.50;;
24259;SDS011;12384;48.112;18.418;2023-02-13T06:34:04;21.10;;;18.83;;
24259;SDS011;12384;48.112;18.418;2023-02-13T06:36:32;23.10;;;20.60;;
24259;SDS011;12384;48.112;18.418;2023-02-13T06:39:03;24.67;;;22.17;;
24259;SDS011;12384;48.112;18.418;2023-02-13T06:41:31;24.27;;;21.77;;
24259;SDS011;12384;48.112;18.418;2023-02-13T06:44:01;22.90;;;19.90;;
24259;SDS011;12384;48.112;18.418;2023-02-13T06:46:30;22.57;;;20.23;;
24259;SDS011;12384;48.112;18.418;2023-02-13T06:48:58;20.63;;;18.53;;
24259;SDS011;12384;48.112;18.418;2023-02-13T06:51:26;19.67;;;17.87;;
24259;SDS011;12384;48.112;18.418;2023-02-13T06:53:55;19.67;;;17.87;;
24259;SDS011;12384;48.112;18.418;2023-02-13T06:56:23;19.70;;;17.90;;
24259;SDS011;12384;48.112;18.418;2023-02-13T06:58:52;20.47;;;18.37;;
24259;SDS011;12384;48.112;18.418;2023-02-13T07:01:22;19.97;;;18.03;;
24259;SDS011;12384;48.112;18.418;2023-02-13T07:03:50;20.27;;;18.03;;
24259;SDS011;12384;48.112;18.418;2023-02-13T07:06:19;20.73;;;18.63;;
24259;SDS011;12384;48.112;18.418;2023-02-13T07:08:48;22.90;;;20.50;;
24259;SDS011;12384;48.112;18.418;2023-02-13T07:11:22;23.80;;;21.10;;
24259;SDS011;12384;48.112;18.418;2023-02-13T07:13:51;27.60;;;24.60;;
24259;SDS011;12384;48.112;18.418;2023-02-13T07:16:21;26.80;;;23.00;;
24259;SDS011;12384;48.112;18.418;2023-02-13T07:18:50;26.77;;;23.77;;
24259;SDS011;12384;48.112;18.418;2023-02-13T07:21:18;23.87;;;21.37;;
24259;SDS011;12384;48.112;18.418;2023-02-13T07:23:47;23.43;;;21.13;;
24259;SDS011;12384;48.112;18.418;2023-02-13T07:26:15;24.00;;;21.60;;
24259;SDS011;12384;48.112;18.418;2023-02-13T07:28:44;24.60;;;21.90;;
24259;SDS011;12384;48.112;18.418;2023-02-13T07:31:12;21.97;;;19.77;;
24259;SDS011;12384;48.112;18.418;2023-02-13T07:33:42;23.43;;;21.03;;
24259;SDS011;12384;48.112;18.418;2023-02-13T07:36:10;25.20;;;22.77;;
24259;SDS011;12384;48.112;18.418;2023-02-13T07:38:39;21.77;;;19.67;;
24259;SDS011;12384;48.112;18.418;2023-02-13T07:41:07;21.60;;;19.50;;
24259;SDS011;12384;48.112;18.418;2023-02-13T07:43:36;22.03;;;20.03;;
24259;SDS011;12384;48.112;18.418;2023-02-13T07:46:04;23.53;;;21.33;;
24259;SDS011;12384;48.112;18.418;2023-02-13T07:48:33;21.90;;;19.97;;
24259;SDS011;12384;48.112;18.418;2023-02-13T07:51:03;20.67;;;18.80;;
24259;SDS011;12384;48.112;18.418;2023-02-13T07:53:32;20.17;;;18.37;;
24259;SDS011;12384;48.112;18.418;2023-02-13T07:56:03;21.83;;;19.83;;
24259;SDS011;12384;48.112;18.418;2023-02-13T07:58:32;20.83;;;18.83;;
24259;SDS011;12384;48.112;18.418;2023-02-13T08:01:04;19.27;;;17.50;;
24259;SDS011;12384;48.112;18.418;2023-02-13T08:03:34;19.93;;;18.03;;
24259;SDS011;12384;48.112;18.418;2023-02-13T08:06:05;18.10;;;16.40;;
24259;SDS011;12384;48.112;18.418;2023-02-13T08:08:34;17.77;;;16.17;;
24259;SDS011;12384;48.112;18.418;2023-02-13T08:11:04;18.53;;;16.83;;
24259;SDS011;12384;48.112;18.418;2023-02-13T08:13:52;18.30;;;16.60;;
24259;SDS011;12384;48.112;18.418;2023-02-13T08:16:20;19.00;;;17.10;;
24259;SDS011;12384;48.112;18.418;2023-02-13T08:18:49;19.37;;;17.53;;
24259;SDS011;12384;48.112;18.418;2023-02-13T08:21:18;21.10;;;19.00;;
24259;SDS011;12384;48.112;18.418;2023-02-13T08:23:47;19.50;;;17.70;;
24259;SDS011;12384;48.112;18.418;2023-02-13T08:26:17;19.73;;;17.93;;
24259;SDS011;12384;48.112;18.418;2023-02-13T08:28:46;23.53;;;21.23;;
24259;SDS011;12384;48.112;18.418;2023-02-13T08:31:14;21.47;;;19.53;;
24259;SDS011;12384;48.112;18.418;2023-02-13T08:33:42;19.80;;;17.90;;
24259;SDS011;12384;48.112;18.418;2023-02-13T08:36:11;17.87;;;16.27;;
24259;SDS011;12384;48.112;18.418;2023-02-13T08:38:40;19.67;;;17.80;;
24259;SDS011;12384;48.112;18.418;2023-02-13T08:41:09;18.10;;;16.50;;
24259;SDS011;12384;48.112;18.418;2023-02-13T08:43:37;18.00;;;16.50;;
24259;SDS011;12384;48.112;18.418;2023-02-13T08:46:06;19.57;;;17.67;;
24259;SDS011;12384;48.112;18.418;2023-02-13T08:48:34;18.27;;;16.67;;
24259;SDS011;12384;48.112;18.418;2023-02-13T08:51:04;16.73;;;15.20;;
24259;SDS011;12384;48.112;18.418;2023-02-13T08:53:34;18.33;;;16.73;;
24259;SDS011;12384;48.112;18.418;2023-02-13T08:56:04;18.00;;;16.50;;
24259;SDS011;12384;48.112;18.418;2023-02-13T08:58:33;19.23;;;17.53;;
24259;SDS011;12384;48.112;18.418;2023-02-13T09:01:03;17.80;;;16.13;;
24259;SDS011;12384;48.112;18.418;2023-02-13T09:03:32;19.33;;;17.73;;
24259;SDS011;12384;48.112;18.418;2023-02-13T09:06:01;20.08;;;18.27;;
24259;SDS011;12384;48.112;18.418;2023-02-13T09:08:30;20.50;;;18.70;;
24259;SDS011;12384;48.112;18.418;2023-02-13T09:10:59;20.23;;;18.53;;
24259;SDS011;12384;48.112;18.418;2023-02-13T09:13:30;19.90;;;18.10;;
24259;SDS011;12384;48.112;18.418;2023-02-13T09:16:01;19.27;;;17.57;;
24259;SDS011;12384;48.112;18.418;2023-02-13T09:18:33;18.35;;;16.75;;
24259;SDS011;12384;48.112;18.418;2023-02-13T09:21:02;18.80;;;17.20;;
24259;SDS011;12384;48.112;18.418;2023-02-13T09:23:33;17.23;;;15.73;;
24259;SDS011;12384;48.112;18.418;2023-02-13T09:26:04;19.52;;;17.83;;
24259;SDS011;12384;48.112;18.418;2023-02-13T09:28:35;19.13;;;17.48;;
24259;SDS011;12384;48.112;18.418;2023-02-13T09:31:05;20.03;;;18.27;;
24259;SDS011;12384;48.112;18.418;2023-02-13T09:33:34;19.05;;;17.35;;
24259;SDS011;12384;48.112;18.418;2023-02-13T09:36:04;19.60;;;17.90;;
24259;SDS011;12384;48.112;18.418;2023-02-13T09:38:33;20.58;;;18.70;;
24259;SDS011;12384;48.112;18.418;2023-02-13T09:41:03;18.00;;;16.50;;
24259;SDS011;12384;48.112;18.418;2023-02-13T09:43:36;17.83;;;16.33;;
24259;SDS011;12384;48.112;18.418;2023-02-13T09:46:11;17.77;;;16.13;;
24259;SDS011;12384;48.112;18.418;2023-02-13T09:48:44;17.75;;;16.20;;
24259;SDS011;12384;48.112;18.418;2023-02-13T09:51:15;17.77;;;16.33;;
24259;SDS011;12384;48.112;18.418;2023-02-13T09:53:46;19.48;;;17.85;;
24259;SDS011;12384;48.112;18.418;2023-02-13T09:56:21;19.05;;;17.45;;
24259;SDS011;12384;48.112;18.418;2023-02-13T09:59:01;19.17;;;17.52;;
24259;SDS011;12384;48.112;18.418;2023-02-13T10:01:35;18.30;;;16.70;;
24259;SDS011;12384;48.112;18.418;2023-02-13T10:04:14;17.90;;;16.40;;
24259;SDS011;12384;48.112;18.418;2023-02-13T10:06:53;18.00;;;16.33;;
24259;SDS011;12384;48.112;18.418;2023-02-13T10:09:37;18.63;;;17.03;;
24259;SDS011;12384;48.112;18.418;2023-02-13T10:12:21;17.95;;;16.45;;
24259;SDS011;12384;48.112;18.418;2023-02-13T10:15:11;17.60;;;16.10;;
24259;SDS011;12384;48.112;18.418;2023-02-13T10:17:51;18.75;;;17.25;;
24259;SDS011;12384;48.112;18.418;2023-02-13T10:20:27;18.88;;;17.25;;
24259;SDS011;12384;48.112;18.418;2023-02-13T10:23:03;18.50;;;17.00;;
24259;SDS011;12384;48.112;18.418;2023-02-13T10:25:45;18.83;;;17.17;;
24259;SDS011;12384;48.112;18.418;2023-02-13T10:28:23;18.77;;;17.27;;
24259;SDS011;12384;48.112;18.418;2023-02-13T10:31:01;18.48;;;16.98;;
24259;SDS011;12384;48.112;18.418;2023-02-13T10:33:33;19.63;;;18.02;;
24259;SDS011;12384;48.112;18.418;2023-02-13T10:36:11;18.90;;;17.27;;
24259;SDS011;12384;48.112;18.418;2023-02-13T10:38:49;19.53;;;17.93;;
24259;SDS011;12384;48.112;18.418;2023-02-13T10:41:23;18.45;;;16.83;;
24259;SDS011;12384;48.112;18.418;2023-02-13T10:44:07;18.38;;;16.73;;
24259;SDS011;12384;48.112;18.418;2023-02-13T10:46:53;20.08;;;18.27;;
24259;SDS011;12384;48.112;18.418;2023-02-13T10:49:30;20.27;;;18.50;;
24259;SDS011;12384;48.112;18.418;2023-02-13T10:52:14;20.93;;;19.13;;
24259;SDS011;12384;48.112;18.418;2023-02-13T10:55:04;20.60;;;18.80;;
24259;SDS011;12384;48.112;18.418;2023-02-13T10:57:50;19.48;;;17.58;;
24259;SDS011;12384;48.112;18.418;2023-02-13T11:00:28;20.33;;;18.45;;
24259;SDS011;12384;48.112;18.418;2023-02-13T11:03:03;19.37;;;17.77;;
24259;SDS011;12384;48.112;18.418;2023-02-13T11:05:34;20.40;;;18.50;;
24259;SDS011;12384;48.112;18.418;2023-02-13T11:08:08;20.70;;;19.00;;
24259;SDS011;12384;48.112;18.418;2023-02-13T11:10:44;18.93;;;17.30;;
24259;SDS011;12384;48.112;18.418;2023-02-13T11:13:14;19.27;;;17.67;;
24259;SDS011;12384;48.112;18.418;2023-02-13T11:18:32;17.57;;;16.03;;
24259;SDS011;12384;48.112;18.418;2023-02-13T11:21:06;17.65;;;16.05;;
24259;SDS011;12384;48.112;18.418;2023-02-13T11:23:38;19.42;;;17.63;;
24259;SDS011;12384;48.112;18.418;2023-02-13T11:26:11;17.93;;;16.43;;
24259;SDS011;12384;48.112;18.418;2023-02-13T11:28:47;17.50;;;16.05;;
24259;SDS011;12384;48.112;18.418;2023-02-13T11:31:22;18.20;;;16.60;;
24259;SDS011;12384;48.112;18.418;2023-02-13T11:33:54;17.08;;;15.48;;
24259;SDS011;12384;48.112;18.418;2023-02-13T11:36:26;18.00;;;16.43;;
24259;SDS011;12384;48.112;18.418;2023-02-13T11:38:56;16.73;;;15.33;;
24259;SDS011;12384;48.112;18.418;2023-02-13T11:41:26;18.80;;;17.20;;
24259;SDS011;12384;48.112;18.418;2023-02-13T11:43:57;18.55;;;16.90;;
24259;SDS011;12384;48.112;18.418;2023-02-13T11:46:28;18.65;;;17.05;;
24259;SDS011;12384;48.112;18.418;2023-02-13T11:49:12;18.08;;;16.55;;
24259;SDS011;12384;48.112;18.418;2023-02-13T11:51:45;18.33;;;16.83;;
24259;SDS011;12384;48.112;18.418;2023-02-13T11:54:21;19.70;;;18.03;;
24259;SDS011;12384;48.112;18.418;2023-02-13T11:56:53;19.20;;;17.60;;
24259;SDS011;12384;48.112;18.418;2023-02-13T11:59:37;19.63;;;17.90;;
24259;SDS011;12384;48.112;18.418;2023-02-13T12:02:12;18.97;;;17.40;;
24259;SDS011;12384;48.112;18.418;2023-02-13T12:04:47;18.43;;;16.80;;
24259;SDS011;12384;48.112;18.418;2023-02-13T12:07:19;17.97;;;16.37;;
24259;SDS011;12384;48.112;18.418;2023-02-13T12:09:53;19.83;;;18.13;;
24259;SDS011;12384;48.112;18.418;2023-02-13T12:12:29;20.27;;;18.47;;
24259;SDS011;12384;48.112;18.418;2023-02-13T12:15:03;20.93;;;19.10;;
24259;SDS011;12384;48.112;18.418;2023-02-13T12:17:43;19.13;;;17.43;;
24259;SDS011;12384;48.112;18.418;2023-02-13T12:20:15;19.77;;;17.90;;
24259;SDS011;12384;48.112;18.418;2023-02-13T12:22:47;19.37;;;17.67;;
24259;SDS011;12384;48.112;18.418;2023-02-13T12:25:38;19.00;;;17.30;;
24259;SDS011;12384;48.112;18.418;2023-02-13T12:28:27;18.07;;;16.37;;
24259;SDS011;12384;48.112;18.418;2023-02-13T12:37:14;18.03;;;16.33;;
24259;SDS011;12384;48.112;18.418;2023-02-13T12:39:53;19.10;;;17.30;;
24259;SDS011;12384;48.112;18.418;2023-02-13T12:42:40;17.73;;;16.13;;
24259;SDS011;12384;48.112;18.418;2023-02-13T12:45:15;19.20;;;17.50;;
24259;SDS011;12384;48.112;18.418;2023-02-13T12:47:58;18.73;;;16.93;;
24259;SDS011;12384;48.112;18.418;2023-02-13T12:50:38;18.30;;;16.50;;
24259;SDS011;12384;48.112;18.418;2023-02-13T12:53:29;16.97;;;15.47;;
24259;SDS011;12384;48.112;18.418;2023-02-13T12:56:35;17.57;;;16.07;;
24259;SDS011;12384;48.112;18.418;2023-02-13T12:59:19;16.43;;;15.03;;
24259;SDS011;12384;48.112;18.418;2023-02-13T13:02:04;16.57;;;15.17;;
24259;SDS011;12384;48.112;18.418;2023-02-13T13:04:53;15.80;;;14.50;;
24259;SDS011;12384;48.112;18.418;2023-02-13T13:07:41;16.00;;;14.70;;
24259;SDS011;12384;48.112;18.418;2023-02-13T13:10:37;16.83;;;15.37;;
24259;SDS011;12384;48.112;18.418;2023-02-13T13:13:19;15.70;;;14.48;;
24259;SDS011;12384;48.112;18.418;2023-02-13T13:15:57;15.00;;;13.80;;
24259;SDS011;12384;48.112;18.418;2023-02-13T13:18:36;15.63;;;14.38;;
24259;SDS011;12384;48.112;18.418;2023-02-13T13:21:23;15.47;;;14.27;;
24259;SDS011;12384;48.112;18.418;2023-02-13T13:23:59;15.17;;;13.87;;
24259;SDS011;12384;48.112;18.418;2023-02-13T13:26:35;14.80;;;13.60;;
24259;SDS011;12384;48.112;18.418;2023-02-13T13:29:09;14.83;;;13.67;;
24259;SDS011;12384;48.112;18.418;2023-02-13T13:31:44;14.90;;;13.87;;
24259;SDS011;12384;48.112;18.418;2023-02-13T13:34:20;14.87;;;13.77;;
24259;SDS011;12384;48.112;18.418;2023-02-13T13:36:52;15.03;;;13.83;;
24259;SDS011;12384;48.112;18.418;2023-02-13T13:39:35;14.63;;;13.43;;
24259;SDS011;12384;48.112;18.418;2023-02-13T13:42:13;14.67;;;13.47;;
24259;SDS011;12384;48.112;18.418;2023-02-13T13:47:59;15.07;;;13.97;;
24259;SDS011;12384;48.112;18.418;2023-02-13T13:50:46;14.37;;;13.17;;
24259;SDS011;12384;48.112;18.418;2023-02-13T13:53:16;15.50;;;14.23;;
24259;SDS011;12384;48.112;18.418;2023-02-13T13:56:04;14.80;;;13.60;;
24259;SDS011;12384;48.112;18.418;2023-02-13T13:58:37;15.63;;;14.33;;
24259;SDS011;12384;48.112;18.418;2023-02-13T14:01:18;15.03;;;13.83;;
24259;SDS011;12384;48.112;18.418;2023-02-13T14:03:52;14.17;;;13.00;;
24259;SDS011;12384;48.112;18.418;2023-02-13T14:06:22;14.80;;;13.47;;
24259;SDS011;12384;48.112;18.418;2023-02-13T14:08:53;14.23;;;13.23;;
24259;SDS011;12384;48.112;18.418;2023-02-13T14:11:25;14.57;;;13.40;;
24259;SDS011;12384;48.112;18.418;2023-02-13T14:13:58;14.50;;;13.40;;
24259;SDS011;12384;48.112;18.418;2023-02-13T14:16:38;15.10;;;13.90;;
24259;SDS011;12384;48.112;18.418;2023-02-13T14:19:24;15.50;;;14.30;;
24259;SDS011;12384;48.112;18.418;2023-02-13T14:25:18;15.70;;;14.50;;
24259;SDS011;12384;48.112;18.418;2023-02-13T14:27:57;15.40;;;14.20;;
24259;SDS011;12384;48.112;18.418;2023-02-13T14:30:30;15.97;;;14.67;;
24259;SDS011;12384;48.112;18.418;2023-02-13T14:33:02;16.10;;;14.83;;
24259;SDS011;12384;48.112;18.418;2023-02-13T14:35:33;16.40;;;15.10;;
24259;SDS011;12384;48.112;18.418;2023-02-13T14:38:05;16.03;;;14.53;;
24259;SDS011;12384;48.112;18.418;2023-02-13T14:40:45;18.23;;;16.63;;
24259;SDS011;12384;48.112;18.418;2023-02-13T14:43:19;18.30;;;16.70;;
24259;SDS011;12384;48.112;18.418;2023-02-13T14:46:05;17.67;;;16.07;;
24259;SDS011;12384;48.112;18.418;2023-02-13T14:48:50;18.23;;;16.63;;
24259;SDS011;12384;48.112;18.418;2023-02-13T14:51:25;19.33;;;17.63;;
24259;SDS011;12384;48.112;18.418;2023-02-13T14:54:02;18.60;;;16.87;;
24259;SDS011;12384;48.112;18.418;2023-02-13T14:56:34;19.10;;;17.33;;
24259;SDS011;12384;48.112;18.418;2023-02-13T14:59:09;18.10;;;16.50;;
24259;SDS011;12384;48.112;18.418;2023-02-13T15:01:45;19.17;;;17.17;;
24259;SDS011;12384;48.112;18.418;2023-02-13T15:04:21;17.87;;;16.23;;
24259;SDS011;12384;48.112;18.418;2023-02-13T15:06:57;18.13;;;16.37;;
24259;SDS011;12384;48.112;18.418;2023-02-13T15:09:31;19.30;;;17.50;;
24259;SDS011;12384;48.112;18.418;2023-02-13T15:14:57;17.93;;;15.63;;